Time;durP1;ratioP1;P1;durP2;ratioP2;P2;SDS_P1;SDS_P2;PMS_P1;PMS_P2;Temp;Humidity;BMP_temperature;BMP_pressure;BME280_temperature;BME280_humidity;BME280_pressure;Samples;Min_cycle;Max_cycle;Signal;HPM_P1;HPM_P2
2022/11/06 00:01:18;;;;;;;7.95;2.45;;;9.00;99.90;;;;;;4945846;28;20091;-82
2022/11/06 00:03:44;;;;;;;5.22;2.80;;;9.00;99.90;;;;;;4971552;28;20039;-82
2022/11/06 00:08:58;;;;;;;9.32;3.65;;;9.00;99.90;;;;;;4946375;28;20080;-82
2022/11/06 00:11:24;;;;;;;6.85;2.65;;;9.00;99.90;;;;;;4969318;28;20067;-82
2022/11/06 00:13:51;;;;;;;8.52;3.60;;;9.00;99.90;;;;;;4976773;28;20438;-81
2022/11/06 00:16:17;;;;;;;6.53;2.35;;;8.90;99.90;;;;;;4947203;28;20028;-82
2022/11/06 00:18:42;;;;;;;5.95;3.00;;;8.90;99.90;;;;;;4952575;28;20398;-82
2022/11/06 00:21:18;;;;;;;7.05;3.38;;;8.90;99.90;;;;;;4955312;28;20545;-83
2022/11/06 00:23:45;;;;;;;10.77;2.63;;;8.90;99.90;;;;;;4969154;28;20034;-82
2022/11/06 00:26:16;;;;;;;6.10;2.28;;;8.90;99.90;;;;;;4976112;28;20094;-82
2022/11/06 00:28:42;;;;;;;5.38;2.40;;;8.80;99.90;;;;;;4954359;28;20027;-82
2022/11/06 00:31:10;;;;;;;10.07;3.20;;;8.80;99.90;;;;;;4956084;28;20509;-81
2022/11/06 00:33:36;;;;;;;5.35;3.20;;;8.80;99.90;;;;;;4950294;28;20062;-81
2022/11/06 00:36:06;;;;;;;3.97;1.52;;;8.80;99.90;;;;;;4948967;28;20478;-82
2022/11/06 00:38:31;;;;;;;5.93;2.58;;;8.80;99.90;;;;;;4935493;28;20026;-81
2022/11/06 00:41:04;;;;;;;6.45;2.40;;;8.80;99.90;;;;;;4953934;28;20543;-82
2022/11/06 00:43:29;;;;;;;6.85;1.52;;;8.70;99.90;;;;;;4966676;28;20071;-83
2022/11/06 00:46:05;;;;;;;3.78;2.38;;;8.70;99.90;;;;;;4972220;28;20027;-83
2022/11/06 00:48:31;;;;;;;;;;;8.60;99.90;;;;;;4947747;28;20044;-82
2022/11/06 00:51:10;;;;;;;4.10;2.23;;;8.60;99.90;;;;;;4936813;28;20353;-82
2022/11/06 00:53:35;;;;;;;3.15;1.90;;;8.60;99.90;;;;;;4964617;28;20321;-82
2022/11/06 00:56:14;;;;;;;5.07;2.00;;;8.60;99.90;;;;;;4933084;28;20453;-81
2022/11/06 00:58:40;;;;;;;9.27;2.42;;;8.60;99.90;;;;;;4952794;28;20034;-82
2022/11/06 01:01:07;;;;;;;4.97;2.55;;;8.50;99.90;;;;;;4952551;28;20031;-82
2022/11/06 01:03:32;;;;;;;6.78;2.58;;;8.50;99.90;;;;;;4949315;28;20035;-81
2022/11/06 01:06:05;;;;;;;7.35;2.28;;;8.50;99.90;;;;;;4952386;28;20054;-82
2022/11/06 01:08:31;;;;;;;5.55;2.10;;;8.50;99.90;;;;;;4948965;28;20110;-82
2022/11/06 01:10:57;;;;;;;5.93;1.70;;;8.50;99.90;;;;;;4967035;28;20451;-83
2022/11/06 01:13:22;;;;;;;6.30;2.90;;;8.40;99.90;;;;;;4936832;28;20157;-82
2022/11/06 01:15:48;;;;;;;3.10;2.15;;;8.40;99.90;;;;;;4966388;28;20055;-81
2022/11/06 01:18:13;;;;;;;3.78;2.30;;;8.40;99.90;;;;;;4969758;28;20039;-82
2022/11/06 01:20:39;;;;;;;8.38;3.58;;;8.40;99.90;;;;;;4952724;28;20030;-82
2022/11/06 01:23:04;;;;;;;3.75;1.48;;;8.40;99.90;;;;;;4933326;28;20031;-82
2022/11/06 01:25:30;;;;;;;3.80;2.65;;;8.40;99.90;;;;;;4966399;28;20371;-82
2022/11/06 01:27:55;;;;;;;6.35;2.55;;;8.40;99.90;;;;;;4952545;28;20039;-82
2022/11/06 01:30:21;;;;;;;8.60;2.80;;;8.30;99.90;;;;;;4961901;28;20040;-81
2022/11/06 01:32:47;;;;;;;9.20;2.83;;;8.40;99.90;;;;;;4949227;28;20031;-82
2022/11/06 01:35:12;;;;;;;8.93;2.42;;;8.30;99.90;;;;;;4950348;28;20035;-81
2022/11/06 01:37:38;;;;;;;3.95;1.95;;;8.30;99.90;;;;;;4954496;28;20031;-82
2022/11/06 01:40:04;;;;;;;9.10;2.45;;;8.30;99.90;;;;;;4968267;28;20030;-82
2022/11/06 01:42:29;;;;;;;7.10;1.73;;;8.30;99.90;;;;;;4941756;28;20493;-82
2022/11/06 01:45:20;;;;;;;6.22;1.27;;;8.20;99.90;;;;;;4953343;28;20223;-81
2022/11/06 01:47:45;;;;;;;5.40;1.90;;;8.20;99.90;;;;;;4953674;28;20046;-82
2022/11/06 01:50:11;;;;;;;6.70;2.60;;;8.20;99.90;;;;;;4942606;28;20031;-81
2022/11/06 01:52:37;;;;;;;4.72;1.88;;;8.20;99.90;;;;;;4964098;28;20034;-82
2022/11/06 01:55:13;;;;;;;7.20;2.33;;;8.20;99.90;;;;;;4947952;28;20095;-81
2022/11/06 01:57:39;;;;;;;5.55;2.42;;;8.20;99.90;;;;;;4948776;28;20046;-82
2022/11/06 02:00:05;;;;;;;6.03;1.92;;;8.20;99.90;;;;;;4932812;28;20023;-82
2022/11/06 02:02:31;;;;;;;5.00;2.20;;;8.20;99.90;;;;;;4976747;28;20039;-81
2022/11/06 02:04:56;;;;;;;3.08;1.52;;;8.20;99.90;;;;;;4965559;28;20041;-82
2022/11/06 02:07:22;;;;;;;9.60;2.55;;;8.20;99.90;;;;;;4958119;28;20027;-82
2022/11/06 02:09:48;;;;;;;7.45;2.38;;;8.10;99.90;;;;;;4951004;28;20367;-82
2022/11/06 02:12:19;;;;;;;7.22;2.17;;;8.10;99.90;;;;;;4961679;28;20399;-82
2022/11/06 02:15:04;;;;;;;5.20;4.13;;;8.10;99.90;;;;;;4962963;28;20031;-82
2022/11/06 02:17:38;;;;;;;11.25;3.72;;;8.10;99.90;;;;;;4929456;28;20042;-82
2022/11/06 02:20:25;;;;;;;5.47;2.30;;;8.10;99.90;;;;;;4967033;28;20125;-81
2022/11/06 02:23:23;;;;;;;7.50;1.92;;;8.00;99.90;;;;;;4945280;28;20039;-81
2022/11/06 02:25:58;;;;;;;7.60;2.50;;;8.00;99.90;;;;;;4964750;28;20035;-79
2022/11/06 02:28:30;;;;;;;5.15;1.90;;;8.10;99.90;;;;;;4945923;28;20027;-82
2022/11/06 02:30:56;;;;;;;3.70;2.13;;;8.10;99.90;;;;;;4966113;28;20110;-82
2022/11/06 02:33:27;;;;;;;5.20;2.45;;;8.00;99.90;;;;;;4964682;28;20447;-82
2022/11/06 02:36:15;;;;;;;6.90;1.83;;;8.10;99.90;;;;;;4967486;28;20033;-82
2022/11/06 02:38:45;;;;;;;5.82;1.80;;;8.10;99.90;;;;;;4945946;28;20037;-81
2022/11/06 02:41:15;;;;;;;4.03;2.00;;;8.10;99.90;;;;;;4960482;28;20477;-81
2022/11/06 02:43:44;;;;;;;3.55;2.00;;;8.10;99.90;;;;;;4966178;28;20070;-82
2022/11/06 02:46:40;;;;;;;3.72;2.05;;;8.10;99.90;;;;;;4977130;28;20027;-82
2022/11/06 02:49:24;;;;;;;7.22;2.28;;;8.10;99.90;;;;;;4945102;28;20111;-81
2022/11/06 02:51:55;;;;;;;10.85;2.55;;;8.10;99.90;;;;;;4950712;28;20507;-82
2022/11/06 02:54:21;;;;;;;6.45;2.00;;;8.10;99.90;;;;;;4930064;28;20031;-81
2022/11/06 02:56:47;;;;;;;4.85;2.05;;;8.00;99.90;;;;;;4966406;28;20046;-81
2022/11/06 02:59:15;;;;;;;5.63;1.90;;;8.10;99.90;;;;;;4931910;28;20078;-81
2022/11/06 03:01:47;;;;;;;5.78;1.80;;;8.00;99.90;;;;;;4946130;28;20031;-82
2022/11/06 03:04:17;;;;;;;4.93;1.70;;;8.00;99.90;;;;;;4931108;28;20194;-82
2022/11/06 03:06:50;;;;;;;10.52;2.80;;;8.00;99.90;;;;;;4930217;28;20098;-81
2022/11/06 03:09:21;;;;;;;5.35;1.98;;;8.10;99.90;;;;;;4931076;28;20089;-81
2022/11/06 03:11:52;;;;;;;11.25;2.00;;;7.90;99.90;;;;;;4958068;28;20585;-81
2022/11/06 03:14:44;;;;;;;8.98;2.28;;;7.90;99.90;;;;;;4929994;28;20166;-82
2022/11/06 03:17:28;;;;;;;9.18;2.05;;;7.90;99.90;;;;;;4949338;28;20035;-82
2022/11/06 03:20:03;;;;;;;4.82;1.73;;;7.90;99.90;;;;;;4956359;28;20041;-82
2022/11/06 03:22:42;;;;;;;3.83;1.92;;;7.90;99.90;;;;;;4965639;28;20427;-82
2022/11/06 03:25:20;;;;;;;7.55;1.85;;;7.90;99.90;;;;;;4942337;28;20490;-81
2022/11/06 03:28:08;;;;;;;6.32;1.75;;;7.90;99.90;;;;;;4964928;28;20027;-82
2022/11/06 03:30:35;;;;;;;4.40;1.75;;;7.90;99.90;;;;;;4963429;28;20038;-78
2022/11/06 03:33:16;;;;;;;7.72;2.17;;;7.90;99.90;;;;;;4947505;28;20921;-78
2022/11/06 03:35:49;;;;;;;8.90;2.40;;;7.80;99.90;;;;;;4958518;28;20035;-78
2022/11/06 03:38:16;;;;;;;3.15;1.52;;;7.90;99.90;;;;;;4948179;28;20971;-78
2022/11/06 03:40:45;;;;;;;3.67;1.67;;;7.80;99.90;;;;;;4952061;28;20031;-79
2022/11/06 03:43:12;;;;;;;4.43;2.00;;;7.80;99.90;;;;;;4958576;28;20078;-78
2022/11/06 03:45:39;;;;;;;5.78;2.05;;;7.80;99.90;;;;;;4944954;28;20121;-78
2022/11/06 03:48:18;;;;;;;4.45;1.88;;;7.80;99.90;;;;;;4946901;28;20190;-79
2022/11/06 03:50:46;;;;;;;3.55;1.10;;;7.80;99.90;;;;;;4948795;28;20030;-78
2022/11/06 03:53:17;;;;;;;4.97;2.25;;;7.90;99.90;;;;;;4964415;28;20034;-79
2022/11/06 03:55:48;;;;;;;2.88;1.23;;;7.90;99.90;;;;;;4947876;28;20035;-78
2022/11/06 03:58:25;;;;;;;6.07;2.20;;;7.80;99.90;;;;;;4973611;28;20037;-78
2022/11/06 04:00:52;;;;;;;6.53;1.48;;;7.90;99.90;;;;;;4935608;28;20040;-78
2022/11/06 04:03:24;;;;;;;5.05;1.67;;;7.80;99.90;;;;;;4931953;28;20183;-78
2022/11/06 04:05:57;;;;;;;3.35;1.80;;;7.80;99.90;;;;;;4960237;28;20042;-78
2022/11/06 04:14:03;;;;;;;6.15;1.65;;;7.70;99.90;;;;;;4964147;28;20624;-79
2022/11/06 04:16:38;;;;;;;4.30;1.58;;;7.70;99.90;;;;;;4955825;28;20813;-78
2022/11/06 04:19:19;;;;;;;3.67;1.63;;;7.70;99.90;;;;;;4961906;28;20038;-78
2022/11/06 04:22:04;;;;;;;5.85;1.70;;;7.80;99.90;;;;;;4945953;28;20127;-78
2022/11/06 04:27:48;;;;;;;7.30;1.98;;;7.80;99.90;;;;;;4958897;28;20505;-78
2022/11/06 04:30:14;;;;;;;7.03;2.08;;;7.70;99.90;;;;;;4962939;28;20443;-78
2022/11/06 04:33:01;;;;;;;3.70;1.52;;;7.60;99.90;;;;;;4960775;28;20031;-78
2022/11/06 04:35:35;;;;;;;;;;;7.60;99.90;;;;;;4945196;28;20490;-78
2022/11/06 04:38:14;;;;;;;9.43;2.28;;;7.60;99.90;;;;;;4946137;28;20492;-78
2022/11/06 04:41:01;;;;;;;2.97;1.27;;;7.60;99.90;;;;;;4945920;28;20506;-78
2022/11/06 04:43:49;;;;;;;1.55;0.95;;;7.70;99.90;;;;;;4951971;28;20137;-78
2022/11/06 04:46:23;;;;;;;4.30;1.30;;;7.60;99.90;;;;;;4941886;28;20031;-78
2022/11/06 04:48:49;;;;;;;8.10;1.55;;;7.60;99.90;;;;;;4946653;28;20496;-78
2022/11/06 04:51:14;;;;;;;4.22;1.65;;;7.70;99.90;;;;;;4976214;28;20117;-79
2022/11/06 04:53:40;;;;;;;4.30;1.63;;;7.60;99.90;;;;;;4969769;28;20042;-78
2022/11/06 04:56:11;;;;;;;2.72;1.55;;;7.60;99.90;;;;;;4947387;28;20037;-78
2022/11/06 04:58:37;;;;;;;4.15;1.45;;;7.60;99.90;;;;;;4934627;28;20050;-78
2022/11/06 05:01:03;;;;;;;7.72;1.05;;;7.60;99.90;;;;;;4944759;28;20516;-78
2022/11/06 05:03:28;;;;;;;5.20;1.40;;;7.60;99.90;;;;;;4952213;28;20130;-78
2022/11/06 05:05:54;;;;;;;4.70;1.50;;;7.60;99.90;;;;;;4970128;28;20034;-78
2022/11/06 05:08:20;;;;;;;2.63;1.33;;;7.50;99.90;;;;;;4949213;28;20116;-78
2022/11/06 05:10:46;;;;;;;9.23;1.98;;;7.50;99.90;;;;;;4935477;28;20396;-79
2022/11/06 05:13:12;;;;;;;9.07;1.38;;;7.50;99.90;;;;;;4960701;28;20027;-78
2022/11/06 05:15:38;;;;;;;7.78;1.80;;;7.50;99.90;;;;;;4933565;28;20042;-78
2022/11/06 05:18:04;;;;;;;4.80;1.27;;;7.50;99.90;;;;;;4932824;28;20023;-78
2022/11/06 05:20:29;;;;;;;6.88;1.63;;;7.50;99.90;;;;;;4980091;28;20037;-78
2022/11/06 05:22:59;;;;;;;7.20;1.70;;;7.50;99.90;;;;;;4946353;28;20026;-78
2022/11/06 05:25:29;;;;;;;7.00;1.42;;;7.50;99.90;;;;;;4963995;28;20502;-78
2022/11/06 05:27:55;;;;;;;8.15;1.95;;;7.60;99.90;;;;;;4943899;28;20042;-78
2022/11/06 05:30:21;;;;;;;4.82;1.45;;;7.50;99.90;;;;;;4961044;28;20035;-78
2022/11/06 05:32:48;;;;;;;3.78;1.40;;;7.50;99.90;;;;;;4948480;28;20035;-78
2022/11/06 05:35:13;;;;;;;5.53;1.70;;;7.40;99.90;;;;;;4943662;28;20038;-76
2022/11/06 05:37:39;;;;;;;4.90;1.75;;;7.40;99.90;;;;;;4920262;28;20426;-76
2022/11/06 05:40:06;;;;;;;4.18;1.33;;;7.40;99.90;;;;;;4935583;28;20038;-76
2022/11/06 05:42:32;;;;;;;5.60;2.15;;;7.40;99.90;;;;;;4977072;28;20031;-76
2022/11/06 05:44:57;;;;;;;8.95;1.77;;;7.40;99.90;;;;;;4962405;28;20514;-76
2022/11/06 05:47:23;;;;;;;5.13;1.20;;;7.30;99.90;;;;;;4951146;28;20085;-76
2022/11/06 05:49:48;;;;;;;3.72;1.25;;;7.40;99.90;;;;;;4952704;28;20126;-78
2022/11/06 05:52:14;;;;;;;2.33;1.10;;;7.60;99.90;;;;;;4950605;28;20375;-77
2022/11/06 05:54:39;;;;;;;4.75;1.52;;;7.40;99.90;;;;;;4948749;28;20027;-77
2022/11/06 05:57:05;;;;;;;3.17;1.20;;;7.40;99.90;;;;;;4952739;28;20037;-78
2022/11/06 05:59:31;;;;;;;4.05;1.38;;;7.40;99.90;;;;;;4968903;28;20035;-77
2022/11/06 06:01:58;;;;;;;4.75;1.20;;;7.50;99.90;;;;;;4929118;28;20114;-78
2022/11/06 06:04:23;;;;;;;5.13;1.40;;;7.50;99.90;;;;;;4942946;28;20038;-77
2022/11/06 06:06:49;;;;;;;4.47;1.38;;;7.50;99.90;;;;;;4944505;28;20039;-78
2022/11/06 06:09:14;;;;;;;6.53;1.30;;;7.50;99.90;;;;;;4957271;28;20046;-77
2022/11/06 06:11:40;;;;;;;5.60;1.70;;;7.50;99.90;;;;;;4960795;28;20035;-77
2022/11/06 06:14:06;;;;;;;4.15;1.50;;;7.50;99.90;;;;;;4954953;28;20039;-77
2022/11/06 06:16:31;;;;;;;7.72;3.78;;;7.40;99.90;;;;;;4946739;28;20391;-77
2022/11/06 06:18:57;;;;;;;2.28;1.02;;;7.50;99.90;;;;;;4928347;28;20105;-77
2022/11/06 06:21:22;;;;;;;5.85;1.08;;;7.40;99.90;;;;;;4952093;28;20636;-78
2022/11/06 06:23:48;;;;;;;3.90;1.15;;;7.30;99.90;;;;;;4947647;28;20090;-78
2022/11/06 06:26:13;;;;;;;5.90;1.50;;;7.40;99.90;;;;;;4961068;28;20038;-78
2022/11/06 06:28:39;;;;;;;10.50;1.60;;;7.40;99.90;;;;;;4945207;28;20031;-78
2022/11/06 06:31:05;;;;;;;5.70;2.13;;;7.50;99.90;;;;;;4951036;28;20366;-77
2022/11/06 06:33:31;;;;;;;6.85;1.17;;;7.50;99.90;;;;;;4954751;28;20528;-78
2022/11/06 06:35:56;;;;;;;3.00;1.50;;;7.50;99.90;;;;;;4963345;28;20022;-77
2022/11/06 06:38:22;;;;;;;5.82;1.25;;;7.50;99.90;;;;;;4955386;28;20038;-78
2022/11/06 06:40:48;;;;;;;5.25;1.90;;;7.50;99.90;;;;;;4945467;28;20023;-78
2022/11/06 06:43:13;;;;;;;3.85;1.42;;;7.50;99.90;;;;;;4967810;28;20116;-78
2022/11/06 06:45:39;;;;;;;4.68;1.20;;;7.50;99.90;;;;;;4939976;28;20413;-78
2022/11/06 06:48:05;;;;;;;4.20;1.40;;;7.50;99.90;;;;;;4942613;28;20437;-78
2022/11/06 06:50:31;;;;;;;7.45;1.20;;;7.40;99.90;;;;;;4957304;28;20059;-78
2022/11/06 06:52:57;;;;;;;4.25;1.40;;;7.50;99.90;;;;;;4944092;28;20062;-78
2022/11/06 06:55:23;;;;;;;5.70;1.67;;;7.50;99.90;;;;;;4962866;28;20038;-79
2022/11/06 06:57:53;;;;;;;3.50;1.17;;;7.50;99.90;;;;;;4948631;28;20027;-78
2022/11/06 07:00:19;;;;;;;3.83;1.52;;;7.60;99.90;;;;;;4959691;28;20644;-78
2022/11/06 07:02:45;;;;;;;7.63;3.03;;;7.60;99.90;;;;;;4945654;28;20042;-78
2022/11/06 07:05:10;;;;;;;7.80;2.28;;;7.60;99.90;;;;;;4942877;28;20066;-78
2022/11/06 07:07:36;;;;;;;3.63;1.13;;;7.70;99.90;;;;;;4928932;28;20114;-78
2022/11/06 07:10:02;;;;;;;7.78;1.67;;;7.80;99.90;;;;;;4945817;28;20117;-77
2022/11/06 07:12:28;;;;;;;5.18;1.10;;;7.80;99.90;;;;;;4947149;28;20404;-77
2022/11/06 07:14:53;;;;;;;5.72;1.52;;;7.90;99.90;;;;;;4961183;28;20031;-78
2022/11/06 07:17:19;;;;;;;7.35;1.25;;;7.80;99.90;;;;;;4935964;28;20035;-78
2022/11/06 07:19:44;;;;;;;4.72;1.55;;;8.00;99.90;;;;;;4951204;28;20046;-77
2022/11/06 07:22:10;;;;;;;4.68;1.48;;;8.00;99.90;;;;;;4947848;28;20438;-78
2022/11/06 07:24:36;;;;;;;7.85;1.63;;;8.10;99.90;;;;;;4961818;28;20192;-78
2022/11/06 07:27:01;;;;;;;7.35;2.22;;;8.20;99.90;;;;;;4929484;28;20059;-78
2022/11/06 07:29:27;;;;;;;2.88;1.05;;;8.20;99.90;;;;;;4974100;28;20117;-78
2022/11/06 07:31:53;;;;;;;7.03;1.13;;;8.20;99.90;;;;;;4933227;28;20042;-78
2022/11/06 07:34:18;;;;;;;5.85;1.40;;;8.30;99.90;;;;;;4963289;28;20039;-77
2022/11/06 07:36:46;;;;;;;7.35;1.33;;;8.50;99.90;;;;;;4963936;28;20035;-78
2022/11/06 07:39:11;;;;;;;3.15;1.08;;;8.50;99.90;;;;;;4945607;28;20035;-78
2022/11/06 07:41:37;;;;;;;9.65;1.40;;;8.50;99.90;;;;;;4960805;28;20431;-77
2022/11/06 07:44:03;;;;;;;6.93;1.20;;;8.50;99.90;;;;;;4950058;28;20050;-77
2022/11/06 07:46:28;;;;;;;4.07;0.88;;;8.60;99.90;;;;;;4944251;28;20470;-77
2022/11/06 07:48:54;;;;;;;8.15;1.77;;;8.90;99.90;;;;;;4930722;28;20475;-78
2022/11/06 07:51:19;;;;;;;4.75;1.10;;;9.00;99.90;;;;;;4963555;28;20032;-77
2022/11/06 07:53:45;;;;;;;1.52;0.80;;;9.00;99.90;;;;;;4962041;28;20038;-78
2022/11/06 07:56:10;;;;;;;4.28;1.40;;;9.30;99.90;;;;;;4946069;28;20215;-78
2022/11/06 07:58:37;;;;;;;7.65;1.70;;;9.20;99.90;;;;;;4940386;28;20037;-78
2022/11/06 08:01:13;;;;;;;3.25;1.27;;;9.10;99.90;;;;;;4934371;28;20121;-78
2022/11/06 08:03:39;;;;;;;10.98;1.52;;;9.20;99.90;;;;;;4960855;28;20033;-78
2022/11/06 08:06:04;;;;;;;3.83;0.77;;;9.40;99.90;;;;;;4942211;28;20039;-78
2022/11/06 08:08:30;;;;;;;4.22;1.05;;;9.40;99.90;;;;;;4932789;28;20166;-79
2022/11/06 08:11:09;;;;;;;6.65;1.20;;;9.60;99.90;;;;;;4932691;28;20035;-78
2022/11/06 08:13:36;;;;;;;2.58;0.85;;;9.60;99.90;;;;;;4943499;28;20046;-78
2022/11/06 08:16:09;;;;;;;2.05;0.90;;;9.90;99.90;;;;;;4944602;28;20293;-78
2022/11/06 08:18:34;;;;;;;10.90;2.05;;;9.80;99.90;;;;;;4974862;28;20550;-78
2022/11/06 08:21:00;;;;;;;2.88;1.40;;;9.70;99.90;;;;;;4951085;28;20074;-78
2022/11/06 08:23:25;;;;;;;4.60;1.33;;;9.90;99.90;;;;;;4951151;28;20442;-79
2022/11/06 08:25:55;;;;;;;8.07;1.05;;;10.10;99.90;;;;;;4963788;28;20022;-78
2022/11/06 08:28:21;;;;;;;2.80;1.30;;;10.20;99.90;;;;;;4927407;28;20095;-79
2022/11/06 08:30:47;;;;;;;2.70;1.13;;;10.30;99.90;;;;;;4964303;28;20031;-78
2022/11/06 08:33:14;;;;;;;6.57;1.75;;;10.30;99.90;;;;;;4947046;28;20045;-79
2022/11/06 08:35:40;;;;;;;4.78;1.05;;;10.40;99.90;;;;;;4932894;28;20042;-78
2022/11/06 08:38:05;;;;;;;4.20;1.20;;;10.60;99.90;;;;;;4949363;28;20043;-78
2022/11/06 08:40:31;;;;;;;3.40;0.82;;;10.60;99.90;;;;;;4964629;28;20031;-78
2022/11/06 08:43:00;;;;;;;5.32;1.15;;;10.70;99.90;;;;;;4952006;28;20031;-78
2022/11/06 08:45:26;;;;;;;4.45;1.17;;;10.90;99.90;;;;;;4945701;28;20114;-79
2022/11/06 08:47:51;;;;;;;4.60;1.20;;;11.10;99.90;;;;;;4945404;28;20122;-78
2022/11/06 08:50:17;;;;;;;5.38;1.40;;;11.10;99.90;;;;;;4967186;28;20041;-78
2022/11/06 08:52:43;;;;;;;3.47;1.02;;;11.50;99.90;;;;;;4970670;28;20038;-78
2022/11/06 08:55:08;;;;;;;4.03;1.60;;;11.40;99.90;;;;;;4926229;28;20564;-78
2022/11/06 08:57:34;;;;;;;4.47;1.50;;;11.50;99.90;;;;;;4956189;28;20467;-78
2022/11/06 08:59:59;;;;;;;4.47;1.15;;;11.70;99.90;;;;;;4967043;28;20113;-78
2022/11/06 09:02:25;;;;;;;5.18;1.30;;;11.90;99.90;;;;;;4941343;28;20031;-79
2022/11/06 09:04:53;;;;;;;1.48;1.00;;;12.00;99.90;;;;;;4963110;28;20047;-78
2022/11/06 09:07:18;;;;;;;2.42;1.02;;;12.10;99.90;;;;;;4930833;28;20386;-79
2022/11/06 09:09:44;;;;;;;8.38;1.55;;;12.20;99.90;;;;;;4957657;28;20027;-78
2022/11/06 09:12:09;;;;;;;5.28;1.30;;;12.30;99.90;;;;;;4945621;28;20031;-78
2022/11/06 09:14:35;;;;;;;7.50;1.38;;;12.40;99.90;;;;;;4911125;28;20126;-78
2022/11/06 09:17:01;;;;;;;4.03;1.20;;;12.40;99.90;;;;;;4966064;28;20445;-80
2022/11/06 09:19:26;;;;;;;4.72;1.33;;;12.30;99.90;;;;;;4951198;28;20034;-79
2022/11/06 09:21:52;;;;;;;3.33;1.20;;;12.40;99.90;;;;;;4935630;28;20062;-79
2022/11/06 09:24:17;;;;;;;3.55;1.30;;;12.40;99.90;;;;;;4945989;28;20132;-80
2022/11/06 09:26:44;;;;;;;4.78;1.05;;;12.50;99.90;;;;;;4972711;28;20445;-80
2022/11/06 09:29:10;;;;;;;7.32;1.40;;;12.50;99.90;;;;;;4954290;28;20133;-79
2022/11/06 09:31:35;;;;;;;5.90;1.15;;;12.30;99.90;;;;;;4969500;28;20204;-80
2022/11/06 09:34:02;;;;;;;6.78;1.40;;;12.40;99.90;;;;;;4934739;28;20027;-79
2022/11/06 09:36:27;;;;;;;4.40;1.23;;;12.50;99.90;;;;;;4964466;28;20020;-79
2022/11/06 09:38:53;;;;;;;5.25;1.60;;;12.50;99.90;;;;;;4971192;28;20045;-78
2022/11/06 09:41:22;;;;;;;5.47;1.00;;;12.50;99.90;;;;;;4955335;28;20490;-77
2022/11/06 09:44:26;;;;;;;3.92;1.52;;;12.70;99.90;;;;;;4947295;28;20514;-77
2022/11/06 09:46:51;;;;;;;3.53;1.33;;;12.70;99.90;;;;;;4947656;28;20114;-78
2022/11/06 09:49:21;;;;;;;4.97;1.20;;;12.80;99.90;;;;;;4951841;28;20469;-79
2022/11/06 09:52:07;;;;;;;2.67;1.23;;;12.90;99.90;;;;;;4949898;28;20027;-78
2022/11/06 09:54:42;;;;;;;3.72;1.45;;;12.90;99.90;;;;;;4932640;28;20383;-78
2022/11/06 09:57:18;;;;;;;6.63;1.52;;;13.00;99.90;;;;;;4952008;28;20558;-79
2022/11/06 09:59:43;;;;;;;4.43;1.80;;;13.00;99.90;;;;;;4947196;28;20039;-79
2022/11/06 10:02:19;;;;;;;1.98;1.15;;;13.00;99.90;;;;;;4948140;28;20378;-79
2022/11/06 10:05:08;;;;;;;;;;;13.00;99.90;;;;;;4952054;28;20059;-79
2022/11/06 10:07:38;;;;;;;6.35;1.25;;;13.10;99.90;;;;;;4959702;28;19917;-79
2022/11/06 10:10:05;;;;;;;8.82;1.27;;;13.30;99.90;;;;;;4970661;28;20041;-80
2022/11/06 10:12:49;;;;;;;5.65;2.33;;;13.30;99.90;;;;;;4951293;28;20037;-79
2022/11/06 10:15:35;;;;;;;8.40;1.60;;;13.60;99.90;;;;;;4960419;28;20090;-79
2022/11/06 10:18:10;;;;;;;3.88;1.30;;;13.40;99.90;;;;;;4968081;28;20034;-79
2022/11/06 10:20:52;;;;;;;5.38;1.42;;;13.40;99.90;;;;;;4916115;28;20066;-78
2022/11/06 10:23:21;;;;;;;2.00;1.05;;;13.40;99.90;;;;;;4908191;28;20122;-79
2022/11/06 10:26:06;;;;;;;3.78;1.20;;;13.30;99.90;;;;;;4931996;28;20035;-79
2022/11/06 10:29:00;;;;;;;8.73;2.38;;;13.30;99.90;;;;;;4963029;28;20070;-78
2022/11/06 10:31:31;;;;;;;2.08;0.90;;;13.30;99.90;;;;;;4971993;28;20031;-79
2022/11/06 10:34:02;;;;;;;8.38;2.38;;;13.50;99.90;;;;;;4961739;28;20054;-79
2022/11/06 10:36:38;;;;;;;1.80;0.93;;;13.50;99.90;;;;;;4950399;28;20031;-78
2022/11/06 10:39:04;;;;;;;;;;;13.40;99.90;;;;;;4933236;28;20035;-79
2022/11/06 10:41:33;;;;;;;3.50;1.13;;;13.40;99.90;;;;;;4928952;28;21408;-79
2022/11/06 10:44:03;;;;;;;4.88;1.35;;;13.50;99.90;;;;;;4956136;28;20044;-79
2022/11/06 10:46:37;;;;;;;3.20;0.90;;;13.50;99.90;;;;;;4974343;28;20034;-79
2022/11/06 10:49:28;;;;;;;4.20;1.23;;;13.60;99.90;;;;;;4940277;28;20036;-79
2022/11/06 10:52:28;;;;;;;3.58;1.15;;;13.60;99.90;;;;;;4964933;28;20042;-80
2022/11/06 10:55:03;;;;;;;7.15;1.60;;;13.60;99.90;;;;;;4955371;28;20458;-79
2022/11/06 10:57:56;;;;;;;3.63;0.95;;;13.50;99.90;;;;;;4956497;28;20031;-79
2022/11/06 11:00:21;;;;;;;3.53;1.23;;;13.50;99.90;;;;;;4964447;28;20031;-79
2022/11/06 11:02:50;;;;;;;2.47;1.45;;;13.40;99.90;;;;;;4945877;28;20677;-79
2022/11/06 11:05:17;;;;;;;2.85;1.05;;;13.40;99.90;;;;;;4947616;28;20089;-80
2022/11/06 11:07:44;;;;;;;3.30;1.15;;;13.50;99.90;;;;;;4953222;28;20047;-79
2022/11/06 11:10:27;;;;;;;5.97;1.70;;;13.60;99.90;;;;;;4950685;28;20042;-79
2022/11/06 11:12:54;;;;;;;6.78;1.40;;;13.70;99.90;;;;;;4950825;28;20038;-80
2022/11/06 11:15:23;;;;;;;7.20;1.65;;;13.70;99.90;;;;;;4937038;28;20042;-80
2022/11/06 11:18:10;;;;;;;4.60;1.40;;;13.80;99.90;;;;;;4971193;28;20031;-80
2022/11/06 11:20:41;;;;;;;4.10;1.13;;;13.80;99.90;;;;;;4965351;28;20046;-80
2022/11/06 11:23:18;;;;;;;5.80;1.27;;;13.80;99.90;;;;;;4933049;28;20035;-80
2022/11/06 11:25:51;;;;;;;6.93;1.30;;;13.90;99.90;;;;;;4961122;28;21870;-80
2022/11/06 11:28:25;;;;;;;2.20;1.40;;;13.70;99.90;;;;;;4933170;28;20038;-79
2022/11/06 11:31:08;;;;;;;6.53;1.42;;;13.60;99.90;;;;;;4925403;28;20114;-80
2022/11/06 11:33:33;;;;;;;2.20;1.00;;;13.60;99.90;;;;;;4964038;28;20031;-79
2022/11/06 11:35:59;;;;;;;5.30;1.40;;;13.60;99.90;;;;;;4967455;28;20539;-80
2022/11/06 11:38:26;;;;;;;5.00;3.38;;;13.50;99.90;;;;;;4962102;28;20068;-80
2022/11/06 11:40:51;;;;;;;5.97;1.20;;;13.40;99.90;;;;;;4953233;28;20118;-79
2022/11/06 11:43:26;;;;;;;5.60;1.40;;;13.40;99.90;;;;;;4944195;28;20106;-80
2022/11/06 11:46:07;;;;;;;6.53;1.97;;;13.50;99.90;;;;;;4600361;28;9999827;-80
2022/11/06 11:48:55;;;;;;;3.53;1.50;;;13.50;99.90;;;;;;4964313;28;20034;-80
2022/11/06 11:51:35;;;;;;;9.40;1.50;;;13.50;99.90;;;;;;4971889;28;20044;-81
2022/11/06 11:54:25;;;;;;;4.75;1.13;;;13.50;99.90;;;;;;4978739;28;20046;-80
2022/11/06 11:56:54;;;;;;;2.55;1.27;;;13.50;99.90;;;;;;4964181;28;20034;-81
2022/11/06 11:59:38;;;;;;;5.50;1.90;;;13.40;99.90;;;;;;4961890;28;20486;-80
2022/11/06 12:02:34;;;;;;;3.22;1.17;;;13.50;99.90;;;;;;4941118;28;20103;-80
2022/11/06 12:05:17;;;;;;;2.05;1.17;;;13.40;99.90;;;;;;4939453;28;20046;-80
2022/11/06 12:07:46;;;;;;;8.13;1.90;;;13.50;99.90;;;;;;4936921;28;20125;-81
2022/11/06 12:10:26;;;;;;;4.45;2.08;;;13.50;99.90;;;;;;4935232;28;20466;-81
2022/11/06 12:12:52;;;;;;;5.30;1.33;;;13.50;99.90;;;;;;4937372;28;20039;-81
2022/11/06 12:15:20;;;;;;;3.90;1.70;;;13.50;99.90;;;;;;4950818;28;20050;-81
2022/11/06 12:17:53;;;;;;;5.70;1.30;;;13.50;99.90;;;;;;4954456;28;20066;-81
2022/11/06 12:20:23;;;;;;;4.57;1.60;;;13.60;99.90;;;;;;4943510;28;20054;-81
2022/11/06 12:22:48;;;;;;;8.02;1.77;;;13.60;99.90;;;;;;4957730;28;20039;-81
2022/11/06 12:25:22;;;;;;;5.78;1.55;;;13.70;99.90;;;;;;4953044;28;20135;-81
2022/11/06 12:27:53;;;;;;;3.20;1.50;;;13.70;99.90;;;;;;4966334;28;20062;-81
2022/11/06 12:30:26;;;;;;;3.72;1.65;;;13.90;99.90;;;;;;4967487;28;20099;-81
2022/11/06 12:32:57;;;;;;;7.80;1.80;;;13.90;99.90;;;;;;4951598;28;20042;-81
2022/11/06 12:35:27;;;;;;;4.13;1.23;;;13.80;99.90;;;;;;4953259;28;20041;-82
2022/11/06 12:38:31;;;;;;;6.07;1.52;;;13.70;99.90;;;;;;4959079;28;20569;-81
2022/11/06 12:41:09;;;;;;;5.35;1.40;;;13.50;99.90;;;;;;4948662;28;20031;-82
2022/11/06 12:43:45;;;;;;;4.05;1.42;;;13.60;99.90;;;;;;4979085;28;20521;-81
2022/11/06 12:46:18;;;;;;;;;;;13.50;99.90;;;;;;4922828;28;20489;-81
2022/11/06 12:48:53;;;;;;;7.13;1.35;;;13.50;99.90;;;;;;4956737;28;19910;-81
2022/11/06 12:51:42;;;;;;;3.30;1.10;;;13.50;99.90;;;;;;4950812;28;20490;-81
2022/11/06 12:54:14;;;;;;;3.80;1.73;;;13.40;99.90;;;;;;4950926;28;20117;-80
2022/11/06 12:57:21;;;;;;;4.63;1.55;;;13.50;99.90;;;;;;4956316;28;20039;-81
2022/11/06 13:00:25;;;;;;;1.87;1.07;;;13.40;99.90;;;;;;4917390;28;20028;-81
2022/11/06 13:03:10;;;;;;;7.32;2.03;;;13.50;99.90;;;;;;4857436;29;20900;-83
2022/11/06 13:05:55;;;;;;;4.50;1.30;;;13.50;99.90;;;;;;4939177;28;20124;-81
2022/11/06 13:08:52;;;;;;;5.40;0.90;;;13.40;99.90;;;;;;4967628;28;20038;-80
2022/11/06 13:11:17;;;;;;;4.18;1.55;;;13.30;99.90;;;;;;4977978;28;20038;-81
2022/11/06 13:13:52;;;;;;;2.80;1.13;;;13.30;99.90;;;;;;4952285;28;20027;-81
2022/11/06 13:16:45;;;;;;;5.10;1.38;;;13.30;99.90;;;;;;4954305;28;20034;-81
2022/11/06 13:19:40;;;;;;;3.70;1.20;;;13.30;99.90;;;;;;4951172;28;20026;-81
2022/11/06 13:22:14;;;;;;;3.92;1.83;;;13.30;99.90;;;;;;4930826;28;20031;-81
2022/11/06 13:24:52;;;;;;;2.85;1.40;;;13.30;99.90;;;;;;4942761;28;20130;-81
2022/11/06 13:27:38;;;;;;;2.28;1.10;;;13.30;99.90;;;;;;4965055;28;20027;-81